Delray Beach, FL

11:16 AM EDT on May 06, 2015 (GMT -0400)
Pompano Beach | | Change Station
CLOSE
Current Station
Airport
Location: Pompano Beach,
Elevation: 20 ft
Nearby Weather Stations

Elev 20 ft 26.25 °N, 80.11 °W | Updated 23 minutes ago

Overcast
Overcast
77 °F
Feels Like 77 °F
N
10
Wind Variable Wind from NNW

Today
High -- | Low -- °F
--% Chance of Precip.
Yesterday
High -- | Low -- °F
Precip. -- in
6:39 AM 7:55 PM
Waning Gibbous, 94% visible
Pressure 30.05 in
Visibility 10.0 miles
Clouds Scattered Clouds 2000 ft
Mostly Cloudy 8000 ft
Dew Point 66 °F
Humidity 69%
Rainfall 0.00 in
Snow Depth Not available.
UV 6 out of 12
Pollen 4.50 out of 12
Air Quality Not available.
Flu Activity Local Activity
METAR KPMP 061453Z 33009KT 10SM SCT020 BKN080 25/19 A3004 RMK AO2 SLP174 T02500189 51013

More Conditions Fewer Conditions

Pressure 30.05 in
Visibility 10.0 miles
Clouds Scattered Clouds 2000 ft
Mostly Cloudy 8000 ft
Dew Point 66 °F
Humidity 69%
Rainfall 0.00 in
Snow Depth Not available.
UV 6 out of 12
Pollen 4.50 out of 12
Air Quality Not available.
Flu Activity Local Activity
METAR KPMP 061453Z 33009KT 10SM SCT020 BKN080 25/19 A3004 RMK AO2 SLP174 T02500189 51013

More Conditions Fewer Conditions

Nowcast | as of 8:52 am EDT on May 6, 2015

Showers and thunderstorms are currently located over the coastal waters of Palm Beach County. Movement of these showers is toward the northeast. Boaters in this area should be aware of persistent and slow moving showers and possible thunderstorms. Other showers and thunderstorms are located over the Bahamas, outside of the South Florida waters.

×

10-Day Weather Forecast

Almanac

Astronomy

May. 06, 2015 Rise Set
Actual Time
Civil Twilight
Nautical Twilight
Astronomical Twilight
Moon
Length of Visible Light
Length of Day
Tomorrow will be .
, % of the Moon is Illuminated

Today's Extremes

State Highs State Lows

Community

WunderPhotos

Upload Photos

1,818,927 photos uploaded!

WunderBlogs® & News

Nearby

Air Quality

  Air Quality AQ Index Pollutant
Not available.

Snow Depth

Station Depth Elevation

Earthquake Activity

City Distance Mag. Time & Date
Minimum magnitude displayed is 2.5.

Coastal Water Temperatures

Place Temperature

Stations

Nearby Weather Stations

Station Location Temp. Windchill Dew Point Humidity Wind Precip. Elev Updated Type